Friday, November 17, 2017, 2:32 PM EST
Back to Local

KVAY, Mt Holly South Jersey Rgnl

Location: Medford, NJ, United States Lat: 39.933
Local Time: 2:32 PM EST (19:32 GMT) Lon: -74.833
Time Zone: US/Eastern Elev: 52 ft

Show me the last for .
Show Coded

Time T Td Feel RH Dir Speed Gust Alt SLP Vis Weather Sky Remarks
2017-11-17 13:54 49 25 42 38 320° 8 18 30.10 30.09 0 CLR None
2017-11-17 12:54 47 25 39 41 270° 12 21 30.12 30.11 10 CLR 6-hr Min Temp (1pm): 39.0°F
6-hr Max Temp (1pm): 48.0°F
2017-11-17 11:54 47 25 39 41 290° 12 22 30.12 30.12 10 CLR None
2017-11-17 10:54 45 25 37 45 300° 13 21 30.12 30.12 10 CLR None
2017-11-17 09:54 44 25 34 46 290° 16 28 30.15 30.14 10 CLR None
2017-11-17 08:54 43 26 34 50 320° 13 23 30.13 30.13 10 CLR None
2017-11-17 07:54 41 27 32 57 300° 10 18 30.13 30.12 10 CLR None
2017-11-17 06:54 40 27 35 59 330° 7 - 30.09 30.09 10 CLR 6-hr Min Temp (7am): 39.9°F
6-hr Max Temp (7am): 45.0°F
2017-11-17 05:54 42 29 38 59 300° 7 - 30.06 30.06 10 FEW043 None
2017-11-17 04:54 43 28 34 55 300° 10 21 30.05 30.04 10 BKN047 None
2017-11-17 03:54 44 29 40 55 300° 7 - 30.03 30.03 10 OVC048 None
2017-11-17 02:54 44 31 39 59 290° 9 - 30.01 30.01 10 OVC048 None
2017-11-17 01:54 42 31 38 64 280° 7 - 30.00 29.99 10 FEW060 None
2017-11-17 00:54 43 31 39 62 Variable 7 - 29.99 29.98 10 FEW044 6-hr Min Temp (1am): 43.0°F
6-hr Max Temp (1am): 48.9°F
2017-11-16 23:54 44 31 39 59 270° 9 - 29.99 29.98 10 CLR 24-hr Min Temp (12am): 44.1°F
24-hr Max Temp (12am): 59.0°F
2017-11-16 22:54 44 31 36 59 280° 7 20 29.98 29.97 10 CLR None
2017-11-16 21:54 45 31 38 57 Variable 7 17 29.97 29.97 10 CLR None
2017-11-16 20:54 47 30 40 51 280° 12 20 29.96 29.96 10 CLR None
2017-11-16 19:54 48 31 40 51 280° 10 24 29.94 29.94 10 CLR None
2017-11-16 18:54 49 31 42 49 290° 10 22 29.93 29.93 10 CLR 6-hr Min Temp (7pm): 48.9°F
6-hr Max Temp (7pm): 59.0°F
2017-11-16 17:54 51 31 - 45 290° 12 28 29.91 29.90 10 BKN075 None
2017-11-16 16:54 50 34 44 53 300° 10 18 29.88 29.88 10 FEW070 Peak wind: 31 mph (27 kts) from 310° at 57 min
2017-11-16 15:54 56 34 - 43 300° 10 24 29.84 29.84 10 SCT060 BKN080 None
2017-11-16 14:54 56 36 - 46 290° 13 24 29.82 29.81 10 CLR Peak wind: 31 mph (27 kts) from 270° at 14 min

Support USWX by starting your Amazon purchase here.